createdAt,value
2022-11-28T00:00:06.513Z,91.20
2022-11-28T00:02:33.085Z,91.76
2022-11-28T00:04:59.612Z,91.93
2022-11-28T00:07:26.152Z,92.11
2022-11-28T00:09:53.031Z,91.17
2022-11-28T00:12:19.546Z,90.95
2022-11-28T00:14:45.987Z,91.00
2022-11-28T00:17:12.394Z,91.94
2022-11-28T00:19:38.806Z,91.18
2022-11-28T00:22:05.266Z,91.33
2022-11-28T00:24:31.699Z,91.22
2022-11-28T00:26:58.132Z,91.16
2022-11-28T00:29:24.607Z,91.54
2022-11-28T00:31:51.082Z,91.27
2022-11-28T00:34:17.554Z,91.41
2022-11-28T00:36:46.164Z,91.50
2022-11-28T00:39:13.525Z,92.08
2022-11-28T00:41:40.230Z,92.85
2022-11-28T00:44:07.130Z,91.05
2022-11-28T00:46:33.704Z,92.08
2022-11-28T00:49:00.180Z,91.33
2022-11-28T00:51:30.141Z,90.96
2022-11-28T00:53:58.244Z,90.23
2022-11-28T00:56:31.205Z,91.16
2022-11-28T00:58:58.524Z,91.07
2022-11-28T01:01:29.573Z,90.75
2022-11-28T01:03:58.518Z,91.54
2022-11-28T01:06:27.804Z,91.38
2022-11-28T01:08:55.312Z,91.27
2022-11-28T01:11:22.521Z,92.50
2022-11-28T01:13:49.762Z,92.59
2022-11-28T01:16:16.693Z,91.88
2022-11-28T01:18:43.237Z,92.48
2022-11-28T01:21:09.816Z,92.95
2022-11-28T01:23:36.616Z,92.56
2022-11-28T01:26:05.389Z,92.67
2022-11-28T01:28:31.828Z,92.66
2022-11-28T01:31:07.591Z,92.55
2022-11-28T01:33:34.047Z,92.21
2022-11-28T01:36:00.780Z,93.00
2022-11-28T01:38:28.141Z,91.72
2022-11-28T01:40:55.643Z,92.50
2022-11-28T01:43:23.010Z,92.04
2022-11-28T01:45:49.675Z,92.24
2022-11-28T01:48:22.941Z,91.50
2022-11-28T01:50:52.381Z,91.84
2022-11-28T01:53:18.896Z,91.01
2022-11-28T01:56:28.955Z,92.27
2022-11-28T01:59:01.936Z,93.45
2022-11-28T02:01:28.663Z,91.87
2022-11-28T02:03:57.873Z,91.87
2022-11-28T02:06:25.266Z,91.63
2022-11-28T02:08:52.967Z,91.56
2022-11-28T02:11:25.452Z,91.66
2022-11-28T02:14:11.264Z,91.91
2022-11-28T02:17:07.208Z,91.05
2022-11-28T02:19:51.597Z,90.32
2022-11-28T02:22:47.308Z,91.15
2022-11-28T02:25:51.493Z,90.30
2022-11-28T02:28:43.900Z,91.86
2022-11-28T02:31:22.539Z,91.62
2022-11-28T02:33:53.902Z,92.20
2022-11-28T02:36:26.238Z,91.75
2022-11-28T02:39:02.513Z,92.95
2022-11-28T02:41:37.217Z,92.58
2022-11-28T02:44:11.269Z,91.83
2022-11-28T02:46:49.807Z,92.49
2022-11-28T02:49:41.143Z,92.46
2022-11-28T02:52:16.684Z,93.80
2022-11-28T02:54:44.360Z,92.74
2022-11-28T02:57:11.056Z,93.07
2022-11-28T02:59:37.490Z,93.74
2022-11-28T03:02:11.385Z,93.66
2022-11-28T03:04:44.376Z,93.52
2022-11-28T03:07:44.748Z,94.47
2022-11-28T03:10:31.482Z,93.77
2022-11-28T03:13:36.336Z,95.02
2022-11-28T03:16:27.934Z,93.55
2022-11-28T03:19:20.543Z,94.34
2022-11-28T03:21:54.726Z,93.52
2022-11-28T03:24:33.684Z,94.77
2022-11-28T03:27:10.106Z,94.75
2022-11-28T03:30:09.111Z,94.80
2022-11-28T03:32:39.251Z,94.88
2022-11-28T03:35:20.563Z,95.93
2022-11-28T03:37:53.056Z,95.83
2022-11-28T03:40:25.453Z,96.23
2022-11-28T03:42:59.051Z,95.72
2022-11-28T03:45:29.781Z,95.67
2022-11-28T03:48:01.696Z,96.19
2022-11-28T03:50:36.044Z,96.53
2022-11-28T03:53:09.958Z,96.28
2022-11-28T03:55:53.919Z,96.87
2022-11-28T03:58:28.141Z,97.23
2022-11-28T04:01:28.606Z,97.85
2022-11-28T04:04:35.817Z,98.04
2022-11-28T04:07:17.883Z,97.81
2022-11-28T04:09:53.829Z,98.16
2022-11-28T04:12:32.416Z,98.31
2022-11-28T04:15:10.589Z,98.45
2022-11-28T04:17:47.205Z,98.35
2022-11-28T04:20:19.001Z,98.62
2022-11-28T04:22:52.712Z,98.41
2022-11-28T04:25:22.119Z,98.44
2022-11-28T04:27:54.133Z,97.78
2022-11-28T04:30:20.721Z,99.04
2022-11-28T04:32:51.719Z,98.73
2022-11-28T04:35:29.373Z,98.03
2022-11-28T04:37:58.853Z,98.02
2022-11-28T04:40:27.474Z,98.64
2022-11-28T04:42:59.520Z,98.78
2022-11-28T04:45:35.389Z,98.59
2022-11-28T04:48:02.690Z,98.70
2022-11-28T04:50:37.409Z,99.00
2022-11-28T04:53:13.894Z,98.62
2022-11-28T04:55:52.630Z,99.17
2022-11-28T04:58:32.917Z,99.06
2022-11-28T05:01:00.507Z,99.59
2022-11-28T05:03:29.037Z,99.86
2022-11-28T05:05:55.689Z,99.77
2022-11-28T05:08:22.480Z,100.00
2022-11-28T05:10:49.210Z,100.00
2022-11-28T05:13:15.729Z,100.00
2022-11-28T05:15:42.171Z,99.69
2022-11-28T05:18:09.250Z,100.00
2022-11-28T05:20:37.772Z,99.70
2022-11-28T05:23:04.462Z,100.00
2022-11-28T05:25:30.944Z,100.00
2022-11-28T05:27:57.393Z,99.94
2022-11-28T05:30:23.852Z,99.69
2022-11-28T05:32:50.284Z,99.84
2022-11-28T05:35:17.028Z,100.00
2022-11-28T05:37:43.547Z,99.58
2022-11-28T05:40:10.282Z,98.94
2022-11-28T05:42:36.936Z,98.88
2022-11-28T05:45:04.423Z,98.93
2022-11-28T05:47:32.593Z,99.00
2022-11-28T05:49:59.311Z,99.60
2022-11-28T05:52:25.804Z,100.00
2022-11-28T05:54:52.262Z,99.95
2022-11-28T05:57:18.707Z,99.27
2022-11-28T05:59:45.465Z,98.65
2022-11-28T06:02:12.040Z,98.09
2022-11-28T06:04:41.756Z,98.14
2022-11-28T06:07:08.698Z,98.67
2022-11-28T06:09:35.145Z,98.67
2022-11-28T06:12:01.897Z,98.38
2022-11-28T06:14:28.473Z,98.36
2022-11-28T06:16:54.955Z,98.76
2022-11-28T06:19:21.519Z,98.89
2022-11-28T06:21:50.185Z,98.30
2022-11-28T06:24:16.675Z,98.96
2022-11-28T06:26:43.208Z,99.74
2022-11-28T06:29:09.630Z,100.00
2022-11-28T06:31:36.143Z,100.00
2022-11-28T06:34:02.657Z,99.46
2022-11-28T06:36:30.680Z,98.54
2022-11-28T06:38:57.563Z,98.83
2022-11-28T06:41:24.244Z,99.53
2022-11-28T06:43:51.473Z,99.43
2022-11-28T06:46:20.124Z,99.34
2022-11-28T06:48:47.971Z,98.81
2022-11-28T06:51:15.160Z,100.00
2022-11-28T06:53:42.417Z,100.00
2022-11-28T06:56:14.691Z,100.00
2022-11-28T06:58:42.150Z,99.93
2022-11-28T07:01:19.293Z,100.00
2022-11-28T07:03:46.839Z,100.00
2022-11-28T07:06:15.298Z,100.00
2022-11-28T07:08:42.773Z,100.00
2022-11-28T07:11:17.889Z,100.00
2022-11-28T07:13:45.920Z,99.69
2022-11-28T07:16:19.106Z,100.00
2022-11-28T07:18:46.380Z,100.00
2022-11-28T07:21:14.690Z,100.00
2022-11-28T07:23:43.440Z,100.00
2022-11-28T07:26:11.450Z,99.43
2022-11-28T07:28:37.855Z,99.97
2022-11-28T07:31:13.538Z,99.58
2022-11-28T07:33:42.247Z,99.62
2022-11-28T07:36:13.182Z,99.66
2022-11-28T07:38:39.668Z,99.07
2022-11-28T07:41:10.776Z,99.63
2022-11-28T07:43:37.975Z,99.39
2022-11-28T07:46:09.872Z,98.74
2022-11-28T07:48:36.405Z,98.65
2022-11-28T07:51:11.538Z,98.44
2022-11-28T07:53:38.796Z,98.45
2022-11-28T07:56:08.000Z,98.66
2022-11-28T07:58:35.668Z,98.34
2022-11-28T08:01:16.655Z,97.75
2022-11-28T08:03:46.945Z,97.87
2022-11-28T08:06:14.936Z,97.29
2022-11-28T08:08:41.347Z,98.03
2022-11-28T08:11:09.448Z,97.73
2022-11-28T08:13:37.505Z,97.46
2022-11-28T08:16:09.225Z,98.25
2022-11-28T08:18:36.453Z,98.30
2022-11-28T08:21:08.536Z,97.36
2022-11-28T08:23:36.343Z,96.87
2022-11-28T08:26:04.265Z,97.16
2022-11-28T08:28:31.385Z,97.42
2022-11-28T08:30:59.668Z,96.70
2022-11-28T08:33:26.374Z,97.77
2022-11-28T08:35:52.793Z,97.74
2022-11-28T08:38:19.698Z,97.52
2022-11-28T08:40:46.271Z,98.04
2022-11-28T08:43:13.094Z,97.39
2022-11-28T08:45:39.571Z,97.77
2022-11-28T08:48:06.719Z,97.05
2022-11-28T08:50:33.184Z,97.77
2022-11-28T08:53:01.692Z,97.98
2022-11-28T08:55:36.577Z,97.85
2022-11-28T08:58:05.705Z,96.69
2022-11-28T09:00:32.295Z,97.46
2022-11-28T09:02:58.733Z,97.93
2022-11-28T09:05:25.197Z,97.68
2022-11-28T09:07:54.997Z,97.37
2022-11-28T09:10:22.226Z,97.47
2022-11-28T09:12:48.672Z,97.26
2022-11-28T09:15:15.122Z,97.05
2022-11-28T09:17:41.507Z,97.55
2022-11-28T09:20:08.404Z,96.83
2022-11-28T09:22:34.852Z,97.45
2022-11-28T09:25:01.321Z,97.83
2022-11-28T09:27:28.041Z,97.65
2022-11-28T09:29:54.516Z,97.59
2022-11-28T09:32:21.389Z,96.90
2022-11-28T09:34:47.836Z,96.06
2022-11-28T09:37:14.288Z,95.83
2022-11-28T09:40:04.780Z,95.42
2022-11-28T09:42:30.764Z,94.95
2022-11-28T09:45:12.801Z,95.27
2022-11-28T09:47:42.817Z,94.95
2022-11-28T09:50:16.804Z,95.42
2022-11-28T09:53:06.845Z,95.04
2022-11-28T09:55:48.145Z,93.71
2022-11-28T09:58:19.167Z,94.27
2022-11-28T10:01:19.726Z,92.66
2022-11-28T10:03:49.303Z,91.59
2022-11-28T10:06:25.925Z,90.82
2022-11-28T10:09:07.004Z,90.40
2022-11-28T10:11:54.030Z,88.88
2022-11-28T10:14:42.913Z,89.67
2022-11-28T10:17:40.053Z,89.87
2022-11-28T10:20:11.530Z,89.91
2022-11-28T10:22:42.119Z,89.62
2022-11-28T10:25:18.053Z,90.37
2022-11-28T10:27:46.043Z,91.62
2022-11-28T10:30:23.462Z,90.25
2022-11-28T10:33:11.874Z,89.58
2022-11-28T10:35:49.477Z,88.62
2022-11-28T10:38:17.162Z,89.14
2022-11-28T10:40:46.289Z,89.57
2022-11-28T10:43:29.155Z,88.65
2022-11-28T10:46:14.403Z,89.18
2022-11-28T10:49:14.785Z,88.90
2022-11-28T10:51:56.361Z,87.91
2022-11-28T10:54:59.948Z,87.43
2022-11-28T10:57:35.451Z,87.99
2022-11-28T11:00:14.895Z,87.52
2022-11-28T11:03:04.696Z,88.22
2022-11-28T11:05:35.064Z,88.52
2022-11-28T11:08:17.934Z,88.11
2022-11-28T11:10:59.631Z,88.89
2022-11-28T11:13:28.772Z,88.87
2022-11-28T11:16:03.517Z,88.51
2022-11-28T11:18:34.618Z,88.23
2022-11-28T11:21:13.355Z,87.87
2022-11-28T11:23:39.762Z,87.10
2022-11-28T11:26:10.345Z,87.80
2022-11-28T11:28:47.853Z,93.21
2022-11-28T11:31:26.545Z,87.89
2022-11-28T11:34:05.673Z,89.25
2022-11-28T11:36:35.085Z,85.63
2022-11-28T11:39:06.178Z,84.38
2022-11-28T11:41:33.677Z,84.77
2022-11-28T11:44:15.566Z,84.55
2022-11-28T11:46:55.968Z,84.67
2022-11-28T11:49:34.464Z,84.81
2022-11-28T11:52:04.902Z,85.94
2022-11-28T11:54:31.716Z,89.70
2022-11-28T11:57:25.056Z,85.58
2022-11-28T11:59:58.112Z,83.86
2022-11-28T12:02:41.704Z,83.68
2022-11-28T12:05:11.399Z,84.79
2022-11-28T12:07:46.955Z,84.22
2022-11-28T12:10:18.654Z,85.15
2022-11-28T12:12:45.194Z,83.93
2022-11-28T12:15:53.597Z,82.98
2022-11-28T12:18:35.045Z,82.80
2022-11-28T12:21:43.357Z,83.05
2022-11-28T12:24:21.680Z,83.15
2022-11-28T12:26:52.495Z,83.09
2022-11-28T12:29:32.315Z,83.20
2022-11-28T12:32:04.542Z,83.01
2022-11-28T12:35:06.959Z,83.20
2022-11-28T12:38:10.595Z,83.52
2022-11-28T12:40:40.075Z,83.56
2022-11-28T12:43:42.724Z,83.02
2022-11-28T12:46:20.961Z,83.92
2022-11-28T12:49:17.570Z,84.29
2022-11-28T12:52:16.691Z,84.67
2022-11-28T12:55:11.550Z,84.49
2022-11-28T12:58:07.159Z,84.47
2022-11-28T13:00:42.968Z,85.13
2022-11-28T13:03:37.602Z,85.12
2022-11-28T13:06:25.177Z,84.77
2022-11-28T13:09:03.758Z,85.98
2022-11-28T13:11:52.299Z,85.41
2022-11-28T13:14:28.003Z,85.50
2022-11-28T13:16:58.569Z,86.79
2022-11-28T13:19:32.987Z,86.89
2022-11-28T13:22:15.982Z,85.78
2022-11-28T13:25:12.269Z,85.30
2022-11-28T13:27:48.979Z,85.12
2022-11-28T13:30:31.166Z,85.22
2022-11-28T13:33:27.583Z,84.99
2022-11-28T13:35:54.970Z,84.85
2022-11-28T13:38:35.999Z,84.48
2022-11-28T13:41:43.009Z,85.73
2022-11-28T13:44:15.690Z,84.86
2022-11-28T13:46:44.401Z,86.11
2022-11-28T13:49:24.123Z,85.89
2022-11-28T13:52:18.433Z,85.81
2022-11-28T13:54:52.408Z,85.81
2022-11-28T13:57:27.343Z,86.11
2022-11-28T13:59:56.876Z,85.41
2022-11-28T14:02:36.277Z,85.40
2022-11-28T14:05:04.806Z,84.91
2022-11-28T14:07:33.734Z,85.76
2022-11-28T14:10:24.270Z,85.99
2022-11-28T14:13:28.955Z,85.51
2022-11-28T14:16:19.651Z,84.68
2022-11-28T14:19:04.343Z,85.29
2022-11-28T14:21:48.946Z,85.54
2022-11-28T14:24:24.998Z,86.77
2022-11-28T14:26:59.446Z,86.85
2022-11-28T14:29:34.969Z,86.64
2022-11-28T14:34:49.013Z,89.77
2022-11-28T14:37:27.364Z,91.72
2022-11-28T14:39:56.057Z,89.36
2022-11-28T14:42:58.357Z,91.67
2022-11-28T14:45:41.207Z,93.58
2022-11-28T14:48:17.947Z,93.32
2022-11-28T14:50:49.979Z,92.94
2022-11-28T14:53:34.729Z,90.57
2022-11-28T14:56:16.092Z,91.07
2022-11-28T14:58:48.373Z,92.23
2022-11-28T15:01:30.512Z,93.03
2022-11-28T15:04:08.190Z,92.55
2022-11-28T15:06:38.206Z,93.56
2022-11-28T15:09:14.334Z,93.58
2022-11-28T15:11:40.694Z,93.92
2022-11-28T15:14:23.215Z,94.71
2022-11-28T15:16:53.250Z,95.31
2022-11-28T15:19:34.264Z,100.00
2022-11-28T15:22:01.226Z,100.00
2022-11-28T15:24:34.150Z,100.00
2022-11-28T15:27:06.279Z,100.00
2022-11-28T15:29:33.353Z,100.00
2022-11-28T15:32:01.164Z,100.00
2022-11-28T15:34:30.574Z,100.00
2022-11-28T15:37:02.350Z,100.00
2022-11-28T15:39:39.823Z,100.00
2022-11-28T15:42:21.360Z,100.00
2022-11-28T15:44:51.055Z,100.00
2022-11-28T15:47:20.306Z,100.00
2022-11-28T15:49:58.827Z,98.94
2022-11-28T15:52:25.232Z,99.72
2022-11-28T15:54:51.718Z,99.73
2022-11-28T15:57:25.036Z,100.00
2022-11-28T15:59:52.084Z,100.00
2022-11-28T16:02:26.473Z,100.00
2022-11-28T16:05:00.524Z,100.00
2022-11-28T16:07:27.130Z,98.07
2022-11-28T16:10:00.252Z,96.66
2022-11-28T16:12:27.857Z,95.37
2022-11-28T16:14:58.829Z,94.85
2022-11-28T16:17:32.310Z,94.14
2022-11-28T16:19:59.337Z,95.14
2022-11-28T16:22:34.354Z,94.94
2022-11-28T16:25:13.980Z,95.15
2022-11-28T16:27:42.931Z,95.60
2022-11-28T16:30:25.185Z,95.79
2022-11-28T16:32:53.586Z,96.53
2022-11-28T16:35:37.827Z,97.72
2022-11-28T16:38:25.231Z,97.14
2022-11-28T16:40:59.658Z,98.35
2022-11-28T16:43:40.210Z,100.00
2022-11-28T16:46:16.230Z,99.29
2022-11-28T16:48:57.530Z,100.00
2022-11-28T16:51:30.497Z,99.77
2022-11-28T16:53:59.546Z,99.66
2022-11-28T16:56:29.508Z,100.00
2022-11-28T16:59:11.322Z,99.82
2022-11-28T17:01:38.530Z,100.00
2022-11-28T17:04:05.741Z,100.00
2022-11-28T17:06:34.373Z,100.00
2022-11-28T17:09:01.688Z,100.00
2022-11-28T17:11:32.681Z,100.00
2022-11-28T17:14:02.531Z,100.00
2022-11-28T17:16:33.362Z,100.00
2022-11-28T17:19:00.009Z,100.00
2022-11-28T17:21:33.118Z,100.00
2022-11-28T17:24:01.084Z,100.00
2022-11-28T17:26:27.538Z,100.00
2022-11-28T17:28:54.197Z,100.00
2022-11-28T17:31:22.386Z,100.00
2022-11-28T17:33:48.843Z,100.00
2022-11-28T17:36:15.770Z,100.00
2022-11-28T17:38:42.216Z,100.00
2022-11-28T17:41:13.733Z,100.00
2022-11-28T17:43:41.119Z,100.00
2022-11-28T17:46:07.653Z,100.00
2022-11-28T17:48:34.148Z,100.00
2022-11-28T17:51:02.131Z,100.00
2022-11-28T17:53:28.694Z,99.69
2022-11-28T17:55:59.504Z,99.90
2022-11-28T17:58:26.902Z,98.55
2022-11-28T18:01:00.269Z,98.86
2022-11-28T18:03:28.082Z,99.10
2022-11-28T18:05:54.544Z,98.92
2022-11-28T18:08:22.236Z,98.17
2022-11-28T18:10:49.505Z,97.58
2022-11-28T18:13:17.526Z,97.03
2022-11-28T18:15:46.981Z,97.31
2022-11-28T18:18:13.788Z,96.70
2022-11-28T18:20:40.224Z,96.22
2022-11-28T18:23:06.729Z,95.75
2022-11-28T18:25:33.221Z,95.89
2022-11-28T18:27:59.618Z,96.47
2022-11-28T18:30:26.050Z,96.09
2022-11-28T18:32:52.607Z,95.04
2022-11-28T18:35:19.549Z,93.16
2022-11-28T18:37:46.121Z,93.36
2022-11-28T18:40:13.164Z,95.03
2022-11-28T18:42:40.036Z,94.93
2022-11-28T18:45:07.082Z,93.85
2022-11-28T18:47:35.329Z,93.55
2022-11-28T18:50:01.825Z,92.54
2022-11-28T18:52:28.262Z,92.69
2022-11-28T18:54:54.678Z,92.01
2022-11-28T18:57:21.062Z,92.33
2022-11-28T18:59:53.039Z,91.99
2022-11-28T19:02:21.737Z,92.20
2022-11-28T19:04:48.248Z,93.09
2022-11-28T19:07:14.785Z,93.49
2022-11-28T19:09:41.483Z,93.32
2022-11-28T19:12:08.160Z,92.73
2022-11-28T19:14:34.675Z,92.82
2022-11-28T19:17:02.187Z,92.57
2022-11-28T19:19:28.770Z,92.98
2022-11-28T19:21:55.233Z,92.40
2022-11-28T19:24:21.754Z,92.57
2022-11-28T19:26:48.158Z,92.38
2022-11-28T19:29:14.684Z,93.15
2022-11-28T19:31:42.044Z,91.64
2022-11-28T19:34:13.889Z,93.06
2022-11-28T19:36:42.578Z,93.56
2022-11-28T19:39:14.963Z,93.51
2022-11-28T19:41:41.584Z,93.91
2022-11-28T19:44:10.370Z,94.89
2022-11-28T19:46:37.359Z,94.71
2022-11-28T19:49:08.672Z,94.28
2022-11-28T19:51:35.126Z,94.59
2022-11-28T19:54:03.833Z,95.16
2022-11-28T19:56:31.452Z,95.25
2022-11-28T19:58:58.898Z,95.48
2022-11-28T20:01:25.995Z,96.34
2022-11-28T20:03:53.085Z,95.86
2022-11-28T20:06:23.415Z,96.28
2022-11-28T20:08:51.355Z,96.87
2022-11-28T20:11:24.647Z,97.37
2022-11-28T20:14:06.539Z,97.48
2022-11-28T20:16:34.975Z,97.20
2022-11-28T20:19:02.041Z,97.66
2022-11-28T20:21:29.344Z,95.19
2022-11-28T20:23:59.493Z,97.47
2022-11-28T20:26:27.026Z,92.30
2022-11-28T20:28:55.263Z,94.46
2022-11-28T20:31:27.809Z,94.60
2022-11-28T20:33:54.599Z,93.18
2022-11-28T20:36:23.727Z,94.87
2022-11-28T20:38:51.130Z,94.40
2022-11-28T20:41:19.115Z,94.54
2022-11-28T20:43:46.390Z,93.78
2022-11-28T20:46:17.610Z,94.61
2022-11-28T20:48:44.917Z,95.35
2022-11-28T20:51:15.471Z,95.74
2022-11-28T20:53:41.950Z,95.76
2022-11-28T20:56:12.267Z,96.22
2022-11-28T20:58:39.010Z,95.83
2022-11-28T21:01:06.059Z,96.45
2022-11-28T21:03:32.881Z,96.75
2022-11-28T21:06:01.199Z,98.27
2022-11-28T21:08:31.332Z,97.72
2022-11-28T21:10:57.868Z,97.86
2022-11-28T21:13:24.393Z,97.84
2022-11-28T21:15:53.407Z,97.95
2022-11-28T21:18:19.939Z,96.46
2022-11-28T21:20:46.621Z,97.63
2022-11-28T21:23:14.960Z,97.87
2022-11-28T21:25:43.199Z,98.70
2022-11-28T21:28:10.233Z,98.72
2022-11-28T21:30:46.413Z,99.25
2022-11-28T21:33:13.307Z,97.87
2022-11-28T21:35:40.360Z,98.06
2022-11-28T21:38:07.558Z,97.92
2022-11-28T21:40:34.097Z,98.67
2022-11-28T21:43:00.587Z,98.42
2022-11-28T21:45:27.042Z,99.21
2022-11-28T21:47:53.587Z,98.57
2022-11-28T21:50:20.053Z,99.04
2022-11-28T21:52:46.494Z,98.63
2022-11-28T21:55:12.964Z,98.05
2022-11-28T21:57:42.074Z,98.48
2022-11-28T22:00:25.683Z,98.03
2022-11-28T22:03:02.541Z,98.72
2022-11-28T22:05:43.110Z,98.39
2022-11-28T22:08:10.768Z,98.74
2022-11-28T22:10:37.711Z,98.74
2022-11-28T22:13:04.110Z,98.60
2022-11-28T22:15:30.542Z,98.79
2022-11-28T22:17:57.002Z,98.78
2022-11-28T22:20:23.470Z,99.08
2022-11-28T22:22:50.184Z,99.08
2022-11-28T22:25:16.762Z,99.04
2022-11-28T22:27:43.224Z,98.90
2022-11-28T22:30:10.232Z,98.92
2022-11-28T22:32:36.674Z,98.89
2022-11-28T22:35:03.309Z,98.99
2022-11-28T22:37:29.735Z,100.00
2022-11-28T22:39:56.183Z,100.00
2022-11-28T22:42:22.621Z,100.00
2022-11-28T22:44:49.022Z,100.00
2022-11-28T22:47:15.449Z,100.00
2022-11-28T22:49:41.861Z,100.00
2022-11-28T22:52:08.299Z,100.00
2022-11-28T22:54:34.820Z,100.00
2022-11-28T22:57:01.332Z,100.00
2022-11-28T22:59:27.754Z,100.00
2022-11-28T23:01:54.400Z,100.00
2022-11-28T23:04:20.919Z,100.00
2022-11-28T23:06:47.330Z,100.00
2022-11-28T23:09:14.684Z,100.00
2022-11-28T23:11:41.529Z,100.00
2022-11-28T23:14:11.383Z,100.00
2022-11-28T23:16:39.752Z,100.00
2022-11-28T23:19:11.899Z,100.00
2022-11-28T23:21:40.458Z,100.00
2022-11-28T23:24:07.759Z,100.00
2022-11-28T23:26:34.826Z,100.00
2022-11-28T23:29:02.723Z,100.00
2022-11-28T23:31:32.390Z,100.00
2022-11-28T23:33:59.606Z,100.00
2022-11-28T23:36:28.894Z,100.00
2022-11-28T23:38:57.711Z,100.00
2022-11-28T23:41:25.385Z,100.00
2022-11-28T23:43:51.847Z,100.00
2022-11-28T23:46:19.421Z,100.00
2022-11-28T23:48:47.183Z,100.00
2022-11-28T23:51:15.281Z,100.00
2022-11-28T23:53:42.941Z,100.00
2022-11-28T23:56:15.474Z,100.00
2022-11-28T23:58:42.473Z,100.00
